Time;durP1;ratioP1;P1;durP2;ratioP2;P2;SDS_P1;SDS_P2;PMS_P1;PMS_P2;Temp;Humidity;BMP_temperature;BMP_pressure;BME280_temperature;BME280_humidity;BME280_pressure;Samples;Min_cycle;Max_cycle;Signal;HPM_P1;HPM_P2
2024/03/04 00:00:16;;;;;;;64.90;10.13;;;;;;;;;;5002730;28;20454;-71
2024/03/04 00:02:43;;;;;;;71.53;11.00;;;;;;;;;;4992487;28;20887;-72
2024/03/04 00:05:10;;;;;;;66.70;11.40;;;;;;;;;;4992110;28;20551;-72
2024/03/04 00:07:39;;;;;;;68.30;10.93;;;;;;;;;;4992406;28;20474;-72
2024/03/04 00:10:07;;;;;;;65.40;10.47;;;;;;;;;;4992272;28;20449;-72
2024/03/04 00:12:34;;;;;;;65.60;10.73;;;;;;;;;;4992379;28;20448;-72
2024/03/04 00:15:02;;;;;;;66.87;11.17;;;;;;;;;;4991879;28;20495;-72
2024/03/04 00:17:29;;;;;;;65.93;10.27;;;;;;;;;;4992139;28;20468;-72
2024/03/04 00:19:56;;;;;;;66.27;10.57;;;;;;;;;;4992057;28;20451;-72
2024/03/04 00:22:24;;;;;;;66.33;10.50;;;;;;;;;;4992219;28;20462;-72
2024/03/04 00:24:52;;;;;;;64.90;10.47;;;;;;;;;;4991996;28;20446;-72
2024/03/04 00:27:20;;;;;;;68.20;10.07;;;;;;;;;;4992103;28;20472;-72
2024/03/04 00:29:47;;;;;;;66.00;10.47;;;;;;;;;;4992121;28;20460;-72
2024/03/04 00:32:14;;;;;;;67.10;10.47;;;;;;;;;;4991932;28;20459;-72
2024/03/04 00:34:41;;;;;;;67.63;11.27;;;;;;;;;;4991678;28;20482;-72
2024/03/04 00:37:09;;;;;;;67.07;11.10;;;;;;;;;;4991899;28;20820;-72
2024/03/04 00:39:36;;;;;;;63.67;10.30;;;;;;;;;;4991984;28;20455;-72
2024/03/04 00:42:05;;;;;;;73.23;11.60;;;;;;;;;;4992467;28;20443;-72
2024/03/04 00:44:32;;;;;;;65.30;11.30;;;;;;;;;;4991765;28;20961;-72
2024/03/04 00:46:59;;;;;;;65.87;10.60;;;;;;;;;;4998811;28;20468;-72
2024/03/04 00:49:26;;;;;;;67.57;10.80;;;;;;;;;;5011274;28;20936;-72
2024/03/04 00:51:53;;;;;;;67.17;11.20;;;;;;;;;;5011844;28;20447;-72
2024/03/04 00:54:21;;;;;;;67.63;10.93;;;;;;;;;;5011409;28;20497;-72
2024/03/04 00:56:48;;;;;;;66.73;11.33;;;;;;;;;;5011476;28;20470;-72
2024/03/04 00:59:17;;;;;;;65.20;10.97;;;;;;;;;;5011302;28;20485;-72
2024/03/04 01:01:44;;;;;;;68.30;9.97;;;;;;;;;;5006831;28;20456;-72
2024/03/04 01:04:11;;;;;;;69.40;12.37;;;;;;;;;;4992136;28;20452;-72
2024/03/04 01:06:39;;;;;;;67.33;10.80;;;;;;;;;;5000089;28;20483;-72
2024/03/04 01:09:06;;;;;;;65.87;9.73;;;;;;;;;;4991927;28;20545;-72
2024/03/04 01:11:33;;;;;;;65.83;10.50;;;;;;;;;;4995014;28;20446;-72
2024/03/04 01:14:00;;;;;;;65.87;11.40;;;;;;;;;;4995263;28;20492;-72
2024/03/04 01:16:28;;;;;;;65.40;9.90;;;;;;;;;;4995218;28;20467;-72
2024/03/04 01:18:55;;;;;;;70.50;9.87;;;;;;;;;;4995336;28;20454;-72
2024/03/04 01:21:22;;;;;;;71.53;13.10;;;;;;;;;;4995452;28;20481;-72
2024/03/04 01:23:51;;;;;;;68.53;9.93;;;;;;;;;;4995419;28;20451;-72
2024/03/04 01:26:18;;;;;;;67.23;10.50;;;;;;;;;;4995042;28;20502;-72
2024/03/04 01:28:47;;;;;;;65.17;9.77;;;;;;;;;;4995141;28;20452;-72
2024/03/04 01:31:18;;;;;;;67.07;10.20;;;;;;;;;;4995399;28;20810;-70
2024/03/04 01:33:46;;;;;;;65.20;10.30;;;;;;;;;;4995144;28;20451;-70
2024/03/04 01:36:13;;;;;;;66.60;11.13;;;;;;;;;;4994822;28;20471;-68
2024/03/04 01:38:42;;;;;;;66.40;11.17;;;;;;;;;;4999245;28;20451;-69
2024/03/04 01:41:09;;;;;;;66.17;10.60;;;;;;;;;;5014551;28;20447;-70
2024/03/04 01:43:36;;;;;;;69.30;12.87;;;;;;;;;;4995226;28;20715;-70
2024/03/04 01:46:03;;;;;;;66.30;11.00;;;;;;;;;;4995064;28;20463;-70
2024/03/04 01:48:32;;;;;;;67.50;11.40;;;;;;;;;;4994752;28;20971;-70
2024/03/04 01:51:00;;;;;;;64.90;10.30;;;;;;;;;;4994700;28;20451;-70
2024/03/04 01:53:28;;;;;;;65.57;11.23;;;;;;;;;;4994674;28;20454;-70
2024/03/04 01:55:56;;;;;;;67.30;11.20;;;;;;;;;;4994546;28;20823;-70
2024/03/04 01:58:24;;;;;;;67.70;11.90;;;;;;;;;;4994559;28;20455;-70
2024/03/04 02:00:51;;;;;;;66.27;10.30;;;;;;;;;;4994726;28;20447;-70
2024/03/04 02:03:19;;;;;;;67.27;12.30;;;;;;;;;;5002677;28;20457;-70
2024/03/04 02:05:46;;;;;;;68.33;11.30;;;;;;;;;;4994389;28;20448;-70
2024/03/04 02:08:16;;;;;;;67.03;10.83;;;;;;;;;;4994419;28;20470;-70
2024/03/04 02:10:44;;;;;;;68.17;10.90;;;;;;;;;;4994286;28;20460;-70
2024/03/04 02:13:11;;;;;;;69.03;11.50;;;;;;;;;;5010729;28;20450;-70
2024/03/04 02:15:38;;;;;;;65.63;11.50;;;;;;;;;;4994127;28;20488;-70
2024/03/04 02:18:06;;;;;;;68.63;11.73;;;;;;;;;;4994425;28;20513;-70
2024/03/04 02:20:34;;;;;;;66.00;10.77;;;;;;;;;;4993762;28;20455;-70
2024/03/04 02:23:03;;;;;;;66.40;10.67;;;;;;;;;;4994591;28;20466;-70
2024/03/04 02:25:34;;;;;;;68.40;11.50;;;;;;;;;;5004655;28;20960;-69
2024/03/04 02:28:02;;;;;;;69.77;11.90;;;;;;;;;;5013909;28;20453;-69
2024/03/04 02:30:31;;;;;;;67.53;11.30;;;;;;;;;;4995113;28;20451;-69
2024/03/04 02:32:58;;;;;;;67.40;11.10;;;;;;;;;;5008323;28;20455;-70
2024/03/04 02:35:27;;;;;;;68.53;12.50;;;;;;;;;;5011391;28;20491;-69
2024/03/04 02:37:54;;;;;;;66.90;11.30;;;;;;;;;;4993738;28;20479;-70
2024/03/04 02:40:22;;;;;;;67.30;11.63;;;;;;;;;;5003416;28;20450;-70
2024/03/04 02:42:50;;;;;;;67.60;9.90;;;;;;;;;;5013550;28;20447;-70
2024/03/04 02:45:17;;;;;;;66.10;10.37;;;;;;;;;;5013064;28;20490;-70
2024/03/04 02:47:44;;;;;;;69.00;12.13;;;;;;;;;;5008930;28;20472;-70
2024/03/04 02:50:11;;;;;;;69.30;12.10;;;;;;;;;;5010000;28;20472;-70
2024/03/04 02:52:38;;;;;;;68.83;11.33;;;;;;;;;;5009513;28;20453;-70
2024/03/04 02:55:06;;;;;;;68.83;12.40;;;;;;;;;;4993474;28;20501;-70
2024/03/04 02:57:34;;;;;;;68.07;11.20;;;;;;;;;;5004210;28;20476;-70
2024/03/04 03:00:02;;;;;;;68.47;12.53;;;;;;;;;;5013406;28;20452;-70
2024/03/04 03:02:29;;;;;;;68.17;11.53;;;;;;;;;;5013251;28;20487;-69
2024/03/04 03:04:56;;;;;;;66.67;10.70;;;;;;;;;;5007183;28;20455;-70
2024/03/04 03:07:23;;;;;;;65.60;11.33;;;;;;;;;;4993369;28;20838;-70
2024/03/04 03:09:50;;;;;;;67.63;11.60;;;;;;;;;;4998255;28;20454;-70
2024/03/04 03:12:18;;;;;;;72.40;11.87;;;;;;;;;;5012680;28;20443;-70
2024/03/04 03:14:46;;;;;;;68.00;12.87;;;;;;;;;;5000621;28;20483;-70
2024/03/04 03:17:14;;;;;;;65.77;10.77;;;;;;;;;;4993202;28;20467;-70
2024/03/04 03:19:42;;;;;;;65.23;9.60;;;;;;;;;;5012769;28;20458;-70
2024/03/04 03:22:09;;;;;;;67.17;12.00;;;;;;;;;;5005566;28;20454;-70
2024/03/04 03:24:36;;;;;;;68.63;11.37;;;;;;;;;;5011865;28;20446;-70
2024/03/04 03:27:03;;;;;;;69.00;12.07;;;;;;;;;;4997986;28;20468;-70
2024/03/04 03:29:30;;;;;;;70.33;14.33;;;;;;;;;;5001340;28;20542;-70
2024/03/04 03:31:58;;;;;;;67.20;12.37;;;;;;;;;;4992890;28;20454;-69
2024/03/04 03:34:25;;;;;;;66.60;12.23;;;;;;;;;;4992126;28;20449;-70
2024/03/04 03:36:52;;;;;;;67.50;13.10;;;;;;;;;;5005787;28;20980;-71
2024/03/04 03:39:20;;;;;;;73.77;16.10;;;;;;;;;;5012203;28;20533;-71
2024/03/04 03:41:47;;;;;;;70.40;14.70;;;;;;;;;;5000262;28;20463;-71
2024/03/04 03:44:14;;;;;;;67.53;12.83;;;;;;;;;;4992869;28;20544;-71
2024/03/04 03:46:41;;;;;;;71.00;14.80;;;;;;;;;;4992539;28;20465;-72
2024/03/04 03:49:12;;;;;;;69.60;13.13;;;;;;;;;;4992787;28;20452;-72
2024/03/04 03:51:39;;;;;;;73.10;15.33;;;;;;;;;;5012868;28;20453;-72
2024/03/04 03:54:07;;;;;;;73.30;16.57;;;;;;;;;;5012097;28;20448;-72
2024/03/04 03:56:35;;;;;;;75.87;17.47;;;;;;;;;;5009459;28;20506;-72
2024/03/04 03:59:02;;;;;;;75.90;17.40;;;;;;;;;;4992659;28;20538;-72
2024/03/04 04:01:29;;;;;;;76.20;17.33;;;;;;;;;;4992416;28;20899;-72
2024/03/04 04:03:56;;;;;;;76.47;18.10;;;;;;;;;;4992534;28;20841;-71
2024/03/04 04:06:24;;;;;;;74.07;15.90;;;;;;;;;;4993228;28;20479;-69
2024/03/04 04:08:51;;;;;;;77.00;17.67;;;;;;;;;;5012065;28;20455;-70
2024/03/04 04:11:18;;;;;;;80.07;17.90;;;;;;;;;;5011733;28;20453;-70
2024/03/04 04:13:46;;;;;;;77.57;16.80;;;;;;;;;;5000029;28;20963;-70
2024/03/04 04:16:13;;;;;;;79.40;18.13;;;;;;;;;;4992072;28;20912;-70
2024/03/04 04:18:41;;;;;;;73.50;15.63;;;;;;;;;;5000382;28;20448;-70
2024/03/04 04:21:09;;;;;;;76.70;16.73;;;;;;;;;;4992083;28;20454;-70
2024/03/04 04:23:37;;;;;;;77.43;18.10;;;;;;;;;;4991996;28;20459;-70
2024/03/04 04:26:05;;;;;;;75.57;17.53;;;;;;;;;;4992125;28;20474;-72
2024/03/04 04:28:32;;;;;;;77.70;18.17;;;;;;;;;;5000280;28;20452;-70
2024/03/04 04:30:59;;;;;;;78.43;18.77;;;;;;;;;;4997718;28;20479;-71
2024/03/04 04:33:27;;;;;;;79.40;19.77;;;;;;;;;;5002314;28;20458;-70
2024/03/04 04:35:54;;;;;;;83.00;18.93;;;;;;;;;;5004854;28;20504;-70
2024/03/04 04:38:21;;;;;;;80.50;20.87;;;;;;;;;;5011402;28;20465;-71
2024/03/04 04:40:50;;;;;;;84.00;20.33;;;;;;;;;;5011635;28;20455;-71
2024/03/04 04:43:20;;;;;;;81.50;19.60;;;;;;;;;;4995649;28;20836;-71
2024/03/04 04:45:49;;;;;;;82.00;20.07;;;;;;;;;;4988139;28;20443;-71
2024/03/04 04:48:16;;;;;;;82.10;19.27;;;;;;;;;;4995971;28;20467;-71
2024/03/04 04:50:43;;;;;;;82.80;19.73;;;;;;;;;;4995775;28;20443;-71
2024/03/04 04:53:10;;;;;;;81.57;20.47;;;;;;;;;;4995859;28;20940;-71
2024/03/04 04:55:37;;;;;;;82.87;20.57;;;;;;;;;;5006436;28;20858;-71
2024/03/04 04:58:05;;;;;;;85.13;21.47;;;;;;;;;;5009556;28;20455;-71
2024/03/04 05:00:32;;;;;;;83.60;19.60;;;;;;;;;;4995881;28;20448;-71
2024/03/04 05:02:59;;;;;;;82.33;20.70;;;;;;;;;;5001582;28;20448;-71
2024/03/04 05:05:26;;;;;;;81.60;20.40;;;;;;;;;;5014654;28;20443;-71
2024/03/04 05:07:54;;;;;;;80.47;20.47;;;;;;;;;;4995510;28;20464;-71
2024/03/04 05:10:21;;;;;;;84.50;22.63;;;;;;;;;;5003807;28;20448;-71
2024/03/04 05:12:48;;;;;;;87.07;20.70;;;;;;;;;;4999403;28;20452;-70
2024/03/04 05:15:17;;;;;;;84.67;22.07;;;;;;;;;;5014783;28;20519;-71
2024/03/04 05:17:44;;;;;;;82.27;20.97;;;;;;;;;;4995793;28;20474;-71
2024/03/04 05:20:15;;;;;;;83.27;21.10;;;;;;;;;;4995627;28;20451;-71
2024/03/04 05:22:42;;;;;;;86.33;21.53;;;;;;;;;;4995590;28;20463;-71
2024/03/04 05:25:10;;;;;;;84.70;21.67;;;;;;;;;;4995378;28;20456;-71
2024/03/04 05:27:37;;;;;;;85.83;22.13;;;;;;;;;;4997306;28;20492;-71
2024/03/04 05:30:04;;;;;;;88.90;21.00;;;;;;;;;;5015074;28;20455;-71
2024/03/04 05:32:33;;;;;;;85.47;21.97;;;;;;;;;;5015063;28;20457;-71
2024/03/04 05:35:00;;;;;;;85.70;22.60;;;;;;;;;;5014655;28;20450;-71
2024/03/04 05:37:27;;;;;;;88.93;23.80;;;;;;;;;;5014313;28;20489;-71
2024/03/04 05:39:54;;;;;;;86.07;22.20;;;;;;;;;;5002153;28;20964;-71
2024/03/04 05:42:21;;;;;;;88.73;21.60;;;;;;;;;;4994966;28;20908;-71
2024/03/04 05:44:49;;;;;;;83.80;22.53;;;;;;;;;;5006900;28;20824;-70
2024/03/04 05:47:16;;;;;;;89.07;22.17;;;;;;;;;;5014853;28;20522;-70
2024/03/04 05:49:44;;;;;;;86.70;22.20;;;;;;;;;;5006557;28;20455;-70
2024/03/04 05:52:11;;;;;;;87.87;23.27;;;;;;;;;;4999833;28;20886;-70
2024/03/04 05:54:38;;;;;;;87.10;23.73;;;;;;;;;;4994670;28;20459;-70
2024/03/04 05:57:06;;;;;;;85.40;22.80;;;;;;;;;;4994203;28;20510;-71
2024/03/04 05:59:33;;;;;;;96.43;22.40;;;;;;;;;;4994991;28;20452;-71
2024/03/04 06:02:00;;;;;;;87.87;25.07;;;;;;;;;;4994906;28;20455;-71
2024/03/04 06:04:27;;;;;;;88.50;22.90;;;;;;;;;;4994451;28;20448;-70
2024/03/04 06:06:56;;;;;;;92.40;24.53;;;;;;;;;;4994597;28;20465;-70
2024/03/04 06:09:26;;;;;;;87.90;23.10;;;;;;;;;;4994418;28;21041;-71
2024/03/04 06:11:53;;;;;;;86.80;24.70;;;;;;;;;;4994811;28;20892;-71
2024/03/04 06:14:22;;;;;;;91.00;24.80;;;;;;;;;;4994470;28;20451;-71
2024/03/04 06:16:49;;;;;;;89.90;26.73;;;;;;;;;;5006376;28;20842;-71
2024/03/04 06:19:16;;;;;;;88.57;24.37;;;;;;;;;;5014052;28;20448;-71
2024/03/04 06:21:44;;;;;;;93.30;27.63;;;;;;;;;;5002967;28;20543;-71
2024/03/04 06:24:12;;;;;;;91.77;26.43;;;;;;;;;;5000725;28;20455;-71
2024/03/04 06:26:39;;;;;;;94.80;25.80;;;;;;;;;;5011745;28;20478;-71
2024/03/04 06:29:07;;;;;;;88.50;24.30;;;;;;;;;;4994369;28;20452;-71
2024/03/04 06:31:34;;;;;;;96.03;25.40;;;;;;;;;;4994253;28;20457;-71
2024/03/04 06:34:01;;;;;;;89.60;25.27;;;;;;;;;;4994201;28;20453;-71
2024/03/04 06:36:28;;;;;;;92.77;23.13;;;;;;;;;;5002368;28;20502;-70
2024/03/04 06:38:56;;;;;;;89.57;24.13;;;;;;;;;;5001434;28;20467;-70
2024/03/04 06:41:24;;;;;;;90.27;22.70;;;;;;;;;;4994316;28;20452;-70
2024/03/04 06:43:51;;;;;;;92.10;25.13;;;;;;;;;;4994091;28;20533;-70
2024/03/04 06:46:18;;;;;;;91.93;24.03;;;;;;;;;;4993753;28;20465;-70
2024/03/04 06:48:46;;;;;;;90.83;24.23;;;;;;;;;;5012691;28;20539;-70
2024/03/04 06:51:13;;;;;;;92.47;25.00;;;;;;;;;;5013947;28;20957;-71
2024/03/04 06:53:40;;;;;;;91.20;26.73;;;;;;;;;;5013560;28;20477;-71
2024/03/04 06:56:09;;;;;;;92.90;24.77;;;;;;;;;;4999626;28;20503;-70
2024/03/04 06:58:37;;;;;;;96.20;26.10;;;;;;;;;;4995446;28;20454;-71
2024/03/04 07:01:05;;;;;;;95.77;25.40;;;;;;;;;;5008062;28;20802;-71
2024/03/04 07:03:32;;;;;;;92.90;25.53;;;;;;;;;;5010580;28;20549;-71
2024/03/04 07:06:00;;;;;;;93.53;26.97;;;;;;;;;;5013255;28;20506;-71
2024/03/04 07:08:27;;;;;;;97.10;28.47;;;;;;;;;;5012980;28;20452;-70
2024/03/04 07:10:54;;;;;;;92.43;26.97;;;;;;;;;;5001205;28;20453;-70
2024/03/04 07:13:21;;;;;;;100.97;26.90;;;;;;;;;;5001057;28;20538;-70
2024/03/04 07:15:49;;;;;;;101.50;28.23;;;;;;;;;;5012589;28;20441;-71
2024/03/04 07:18:16;;;;;;;96.07;28.13;;;;;;;;;;5012769;28;20479;-71
2024/03/04 07:20:43;;;;;;;89.97;26.87;;;;;;;;;;5012700;28;20462;-71
2024/03/04 07:23:11;;;;;;;94.47;26.17;;;;;;;;;;5013122;28;20487;-71
2024/03/04 07:25:38;;;;;;;94.83;26.90;;;;;;;;;;5011115;28;20451;-71
2024/03/04 07:28:05;;;;;;;97.67;27.77;;;;;;;;;;4993233;28;20567;-71
2024/03/04 07:30:32;;;;;;;92.93;25.70;;;;;;;;;;5009232;28;20449;-71
2024/03/04 07:33:00;;;;;;;95.40;26.37;;;;;;;;;;4997762;28;20455;-70
2024/03/04 07:35:28;;;;;;;97.43;26.80;;;;;;;;;;5012526;28;20462;-71
2024/03/04 07:37:55;;;;;;;93.40;26.20;;;;;;;;;;5012285;28;20587;-71
2024/03/04 07:40:22;;;;;;;103.27;27.87;;;;;;;;;;5012732;28;20550;-71
2024/03/04 07:42:49;;;;;;;102.67;28.10;;;;;;;;;;5001613;28;20458;-71
2024/03/04 07:45:16;;;;;;;99.03;26.40;;;;;;;;;;4992695;28;20458;-71
2024/03/04 07:47:43;;;;;;;100.80;29.60;;;;;;;;;;4992892;28;20551;-71
2024/03/04 07:50:12;;;;;;;101.27;29.90;;;;;;;;;;5001421;28;20451;-71
2024/03/04 07:52:39;;;;;;;101.30;29.80;;;;;;;;;;4994253;28;20454;-71
2024/03/04 07:55:09;;;;;;;111.43;31.23;;;;;;;;;;5012503;28;20547;-71
2024/03/04 07:57:36;;;;;;;102.20;28.70;;;;;;;;;;5002815;28;20501;-71
2024/03/04 08:00:04;;;;;;;102.73;29.13;;;;;;;;;;5005360;28;20456;-71
2024/03/04 08:02:31;;;;;;;102.20;29.80;;;;;;;;;;5012339;28;20539;-71
2024/03/04 08:04:58;;;;;;;96.07;25.93;;;;;;;;;;5012235;28;20453;-71
2024/03/04 08:07:27;;;;;;;108.90;31.40;;;;;;;;;;5012263;28;20844;-71
2024/03/04 08:09:54;;;;;;;107.90;29.27;;;;;;;;;;5012147;28;20456;-71
2024/03/04 08:12:21;;;;;;;105.00;30.30;;;;;;;;;;5011908;28;20963;-71
2024/03/04 08:14:49;;;;;;;104.10;30.47;;;;;;;;;;5012006;28;20452;-71
2024/03/04 08:17:17;;;;;;;99.47;29.30;;;;;;;;;;5011992;28;20874;-71
2024/03/04 08:19:45;;;;;;;102.20;27.80;;;;;;;;;;5001308;28;20831;-71
2024/03/04 08:22:12;;;;;;;105.40;31.00;;;;;;;;;;4992422;28;20453;-71
2024/03/04 08:24:43;;;;;;;101.60;27.77;;;;;;;;;;5009433;28;20457;-72
2024/03/04 08:27:10;;;;;;;98.80;28.53;;;;;;;;;;5012140;28;20471;-71
2024/03/04 08:29:37;;;;;;;100.50;28.90;;;;;;;;;;5011675;28;20998;-71
2024/03/04 08:32:05;;;;;;;100.67;29.80;;;;;;;;;;4999160;28;20453;-71
2024/03/04 08:34:32;;;;;;;101.27;29.23;;;;;;;;;;4992009;28;20476;-71
2024/03/04 08:36:59;;;;;;;98.93;29.83;;;;;;;;;;4991893;28;20550;-71
2024/03/04 08:39:26;;;;;;;98.80;28.70;;;;;;;;;;4992069;28;20459;-71
2024/03/04 08:41:55;;;;;;;100.27;28.40;;;;;;;;;;4995417;28;20459;-71
2024/03/04 08:44:23;;;;;;;98.83;28.20;;;;;;;;;;5004503;28;20550;-70
2024/03/04 08:46:50;;;;;;;96.83;28.70;;;;;;;;;;4991933;28;20473;-71
2024/03/04 08:49:17;;;;;;;98.07;27.67;;;;;;;;;;4991969;28;20458;-71
2024/03/04 08:51:44;;;;;;;103.23;28.43;;;;;;;;;;4993642;28;20514;-71
2024/03/04 08:54:11;;;;;;;100.13;29.60;;;;;;;;;;5011494;28;20449;-71
2024/03/04 08:56:39;;;;;;;100.80;29.40;;;;;;;;;;5011305;28;20492;-71
2024/03/04 08:59:07;;;;;;;104.57;30.40;;;;;;;;;;5011613;28;20825;-71
2024/03/04 09:01:34;;;;;;;108.63;31.87;;;;;;;;;;5011505;28;20828;-70
2024/03/04 09:04:01;;;;;;;105.23;29.70;;;;;;;;;;5011578;28;20458;-70
2024/03/04 09:06:28;;;;;;;110.70;34.33;;;;;;;;;;5011204;28;20554;-71
2024/03/04 09:08:56;;;;;;;107.20;31.93;;;;;;;;;;5011432;28;20448;-71
2024/03/04 09:11:24;;;;;;;107.70;28.73;;;;;;;;;;5011564;28;20479;-71
2024/03/04 09:13:52;;;;;;;114.13;29.67;;;;;;;;;;4992547;28;20841;-69
2024/03/04 09:16:20;;;;;;;107.60;30.57;;;;;;;;;;4991417;28;20476;-70
2024/03/04 09:18:47;;;;;;;101.80;26.80;;;;;;;;;;4991473;28;20531;-70
2024/03/04 09:21:14;;;;;;;109.30;29.97;;;;;;;;;;4997349;28;20952;-71
2024/03/04 09:23:41;;;;;;;106.83;30.50;;;;;;;;;;5003136;28;20453;-71
2024/03/04 09:26:09;;;;;;;105.60;29.53;;;;;;;;;;5010948;28;20475;-71
2024/03/04 09:28:36;;;;;;;97.53;27.50;;;;;;;;;;5011250;28;20456;-71
2024/03/04 09:31:03;;;;;;;101.20;28.90;;;;;;;;;;5011907;28;20451;-71
2024/03/04 09:33:32;;;;;;;99.83;28.47;;;;;;;;;;5014742;28;20450;-71
2024/03/04 09:36:00;;;;;;;103.97;28.20;;;;;;;;;;5014523;28;20474;-71
2024/03/04 09:38:27;;;;;;;99.27;27.50;;;;;;;;;;5014612;28;20487;-71
2024/03/04 09:40:56;;;;;;;103.57;28.07;;;;;;;;;;5014640;28;20459;-71
2024/03/04 09:43:26;;;;;;;116.33;30.57;;;;;;;;;;5015129;28;20530;-71
2024/03/04 09:45:53;;;;;;;98.37;27.70;;;;;;;;;;5011786;28;20465;-71
2024/03/04 09:48:20;;;;;;;103.67;29.13;;;;;;;;;;4995154;28;20453;-71
2024/03/04 09:50:49;;;;;;;100.13;28.40;;;;;;;;;;5013137;28;20454;-71
2024/03/04 09:53:17;;;;;;;106.40;30.30;;;;;;;;;;5014583;28;20465;-71
2024/03/04 09:55:44;;;;;;;107.73;31.03;;;;;;;;;;5012969;28;20825;-71
2024/03/04 09:58:11;;;;;;;103.93;28.57;;;;;;;;;;4994737;28;20498;-71
2024/03/04 10:00:40;;;;;;;107.50;29.87;;;;;;;;;;5003056;28;20446;-71
2024/03/04 10:03:09;;;;;;;108.40;31.20;;;;;;;;;;5014289;28;20960;-71
2024/03/04 10:05:36;;;;;;;100.00;28.20;;;;;;;;;;5013638;28;20948;-71
2024/03/04 10:08:05;;;;;;;108.77;31.37;;;;;;;;;;4994821;28;20496;-71
2024/03/04 10:10:32;;;;;;;106.40;28.37;;;;;;;;;;4994501;28;20855;-71
2024/03/04 10:13:00;;;;;;;103.23;29.00;;;;;;;;;;4994474;28;20454;-71
2024/03/04 10:15:27;;;;;;;107.00;28.90;;;;;;;;;;4994507;28;20448;-71
2024/03/04 10:17:55;;;;;;;110.10;29.17;;;;;;;;;;4994193;28;20507;-71
2024/03/04 10:20:23;;;;;;;110.10;29.90;;;;;;;;;;5000891;28;20452;-71
2024/03/04 10:22:50;;;;;;;106.47;29.80;;;;;;;;;;5013999;28;20470;-71
2024/03/04 10:25:19;;;;;;;101.33;28.37;;;;;;;;;;5013801;28;20447;-72
2024/03/04 10:27:49;;;;;;;103.33;29.10;;;;;;;;;;5013674;28;20560;-71
2024/03/04 10:30:17;;;;;;;104.47;30.47;;;;;;;;;;5013689;28;20461;-71
2024/03/04 10:32:46;;;;;;;101.57;29.60;;;;;;;;;;5013886;28;20511;-71
2024/03/04 10:35:13;;;;;;;101.77;27.47;;;;;;;;;;5013522;28;20541;-71
2024/03/04 10:37:40;;;;;;;103.13;30.00;;;;;;;;;;5013733;28;20488;-71
2024/03/04 10:40:09;;;;;;;95.60;26.67;;;;;;;;;;5013386;28;20952;-71
2024/03/04 10:42:37;;;;;;;95.30;26.37;;;;;;;;;;5013167;28;20544;-71
2024/03/04 10:45:05;;;;;;;89.97;25.30;;;;;;;;;;5013416;28;20473;-71
2024/03/04 10:47:33;;;;;;;101.43;28.40;;;;;;;;;;5013498;28;20523;-71
2024/03/04 10:50:00;;;;;;;99.07;28.20;;;;;;;;;;5013260;28;20452;-71
2024/03/04 10:52:27;;;;;;;96.40;27.20;;;;;;;;;;4998464;28;20460;-71
2024/03/04 10:54:54;;;;;;;110.10;29.00;;;;;;;;;;4993561;28;20829;-71
2024/03/04 10:57:27;;;;;;;102.20;26.90;;;;;;;;;;4993610;28;20497;-71
2024/03/04 10:59:59;;;;;;;99.77;28.37;;;;;;;;;;4993467;28;20458;-71
2024/03/04 11:02:29;;;;;;;100.60;28.37;;;;;;;;;;4993702;28;20454;-71
2024/03/04 11:04:57;;;;;;;100.83;29.20;;;;;;;;;;4993406;28;20458;-72
2024/03/04 11:07:28;;;;;;;99.53;28.03;;;;;;;;;;4993403;28;20549;-70
2024/03/04 11:09:57;;;;;;;109.67;30.70;;;;;;;;;;5011970;28;20946;-70
2024/03/04 11:12:27;;;;;;;101.53;29.60;;;;;;;;;;5013089;28;20452;-70
2024/03/04 11:14:56;;;;;;;103.10;28.17;;;;;;;;;;5012729;28;20449;-70
2024/03/04 11:17:28;;;;;;;98.27;27.13;;;;;;;;;;4998481;28;20491;-70
2024/03/04 11:19:57;;;;;;;97.40;27.67;;;;;;;;;;4992972;28;20907;-71
2024/03/04 11:22:25;;;;;;;102.33;29.80;;;;;;;;;;4993372;28;20541;-70
2024/03/04 11:24:52;;;;;;;99.33;27.90;;;;;;;;;;4993013;28;20462;-70
2024/03/04 11:27:22;;;;;;;101.07;29.97;;;;;;;;;;4993068;28;20469;-70
2024/03/04 11:29:49;;;;;;;109.57;30.17;;;;;;;;;;4992919;28;20487;-70
2024/03/04 11:32:26;;;;;;;101.73;27.90;;;;;;;;;;4992982;28;20946;-70
2024/03/04 11:35:05;;;;;;;102.73;29.10;;;;;;;;;;5011001;28;20456;-70
2024/03/04 11:37:33;;;;;;;102.80;28.23;;;;;;;;;;5012347;28;20491;-70
2024/03/04 11:40:02;;;;;;;102.77;29.83;;;;;;;;;;5012274;28;20457;-71
2024/03/04 11:42:39;;;;;;;99.33;27.60;;;;;;;;;;5012431;28;20461;-70
2024/03/04 11:45:08;;;;;;;104.17;30.40;;;;;;;;;;5012591;28;20822;-70
2024/03/04 11:47:35;;;;;;;104.43;29.03;;;;;;;;;;5012529;28;20465;-69
2024/03/04 11:50:08;;;;;;;105.27;29.20;;;;;;;;;;4993233;28;20462;-71
2024/03/04 11:52:38;;;;;;;100.27;28.20;;;;;;;;;;4992865;28;21012;-71
2024/03/04 11:55:08;;;;;;;97.87;27.37;;;;;;;;;;5003496;28;20457;-71
2024/03/04 11:57:35;;;;;;;105.13;28.20;;;;;;;;;;5012367;28;20839;-71
2024/03/04 12:00:09;;;;;;;103.03;29.47;;;;;;;;;;5012352;28;20541;-71
2024/03/04 12:02:37;;;;;;;101.27;28.57;;;;;;;;;;5012400;28;20461;-70
2024/03/04 12:05:06;;;;;;;99.20;27.57;;;;;;;;;;5003947;28;20483;-70
2024/03/04 12:07:33;;;;;;;103.00;28.40;;;;;;;;;;4997006;28;20473;-71
2024/03/04 12:10:00;;;;;;;104.50;29.30;;;;;;;;;;4992736;28;20497;-71
2024/03/04 12:12:27;;;;;;;99.40;27.50;;;;;;;;;;4992643;28;20529;-70
2024/03/04 12:14:55;;;;;;;96.70;29.63;;;;;;;;;;4992338;28;20516;-69
2024/03/04 12:17:22;;;;;;;97.53;27.10;;;;;;;;;;5006014;28;20569;-71
2024/03/04 12:19:53;;;;;;;95.07;26.77;;;;;;;;;;5011899;28;20540;-71
2024/03/04 12:22:25;;;;;;;102.33;27.93;;;;;;;;;;5011803;28;20447;-71
2024/03/04 12:25:03;;;;;;;98.67;28.20;;;;;;;;;;5011593;28;20996;-72
2024/03/04 12:27:31;;;;;;;103.97;27.93;;;;;;;;;;5005147;28;20906;-72
2024/03/04 12:30:11;;;;;;;96.90;27.53;;;;;;;;;;5002517;28;20460;-72
2024/03/04 12:32:39;;;;;;;98.60;26.20;;;;;;;;;;5011646;28;20453;-72
2024/03/04 12:35:14;;;;;;;95.70;27.50;;;;;;;;;;5011653;28;20445;-72
2024/03/04 12:37:44;;;;;;;93.00;25.07;;;;;;;;;;5011619;28;20500;-71
2024/03/04 12:40:12;;;;;;;97.60;26.43;;;;;;;;;;4984739;28;20454;-70
2024/03/04 12:42:39;;;;;;;98.93;25.87;;;;;;;;;;4992553;28;20454;-71
2024/03/04 12:45:06;;;;;;;89.63;25.77;;;;;;;;;;5011266;28;20807;-70
2024/03/04 12:47:34;;;;;;;93.33;25.80;;;;;;;;;;5011520;28;20472;-70
2024/03/04 12:50:02;;;;;;;94.47;24.70;;;;;;;;;;5011845;28;20457;-70
2024/03/04 12:52:29;;;;;;;89.23;22.53;;;;;;;;;;5011765;28;20449;-70
2024/03/04 12:54:57;;;;;;;88.60;20.77;;;;;;;;;;4993544;28;20547;-70
2024/03/04 12:57:24;;;;;;;84.70;21.10;;;;;;;;;;4997475;28;20564;-70
2024/03/04 12:59:51;;;;;;;84.80;20.60;;;;;;;;;;5010186;28;20540;-70
2024/03/04 13:02:18;;;;;;;83.20;21.57;;;;;;;;;;4992021;28;20458;-70
2024/03/04 13:04:47;;;;;;;84.70;21.43;;;;;;;;;;4992313;28;20484;-70
2024/03/04 13:07:14;;;;;;;85.87;20.00;;;;;;;;;;4995900;28;20528;-70
2024/03/04 13:09:41;;;;;;;84.13;20.40;;;;;;;;;;4995677;28;20469;-70
2024/03/04 13:12:10;;;;;;;83.40;21.13;;;;;;;;;;4995593;28;20453;-70
2024/03/04 13:14:37;;;;;;;89.93;24.07;;;;;;;;;;5010834;28;20886;-71
2024/03/04 13:17:04;;;;;;;87.10;22.83;;;;;;;;;;4996425;28;20477;-71
2024/03/04 13:19:31;;;;;;;93.37;22.30;;;;;;;;;;5002151;28;20492;-73
2024/03/04 13:21:58;;;;;;;85.07;20.67;;;;;;;;;;5015035;28;20465;-71
2024/03/04 13:24:26;;;;;;;91.07;23.00;;;;;;;;;;5009326;28;20454;-71
2024/03/04 13:26:53;;;;;;;88.80;21.77;;;;;;;;;;5012860;28;20475;-71
2024/03/04 13:29:21;;;;;;;94.07;23.80;;;;;;;;;;5002276;28;20449;-70
2024/03/04 13:31:48;;;;;;;88.50;23.20;;;;;;;;;;5004077;28;20542;-70
2024/03/04 13:34:15;;;;;;;84.50;21.37;;;;;;;;;;5007502;28;20472;-70
2024/03/04 13:36:43;;;;;;;84.67;21.80;;;;;;;;;;5014539;28;20476;-70
2024/03/04 13:39:10;;;;;;;90.50;20.57;;;;;;;;;;4995162;28;20487;-70
2024/03/04 13:41:38;;;;;;;82.77;20.77;;;;;;;;;;5002467;28;20560;-71
2024/03/04 13:44:05;;;;;;;84.73;21.70;;;;;;;;;;5014811;28;20453;-70
2024/03/04 13:46:35;;;;;;;88.70;22.00;;;;;;;;;;5014797;28;20874;-70
2024/03/04 13:49:02;;;;;;;90.07;22.10;;;;;;;;;;5014553;28;20456;-71
2024/03/04 13:51:29;;;;;;;88.37;21.90;;;;;;;;;;5006963;28;20443;-70
2024/03/04 13:53:58;;;;;;;89.93;21.70;;;;;;;;;;5014263;28;20447;-71
2024/03/04 13:56:26;;;;;;;87.80;21.00;;;;;;;;;;5009137;28;20512;-71
2024/03/04 13:58:53;;;;;;;81.60;20.07;;;;;;;;;;5002733;28;20992;-71
2024/03/04 14:01:20;;;;;;;86.13;21.20;;;;;;;;;;4994933;28;20450;-71
2024/03/04 14:03:49;;;;;;;82.17;18.40;;;;;;;;;;4994717;28;20450;-71
2024/03/04 14:06:16;;;;;;;86.33;21.17;;;;;;;;;;4994571;28;20757;-71
2024/03/04 14:08:43;;;;;;;89.07;22.03;;;;;;;;;;4995159;28;20446;-71
2024/03/04 14:11:10;;;;;;;87.77;21.30;;;;;;;;;;4994517;28;20488;-71
2024/03/04 14:13:40;;;;;;;84.23;20.10;;;;;;;;;;4994436;28;20964;-71
2024/03/04 14:16:08;;;;;;;85.90;21.63;;;;;;;;;;4993985;28;20482;-72